Latest Weather Observations for Fingal

IDT60801

Issued at 12:21 pm EDT Saturday 10 December 2022 (issued every 10 minutes, with the page automatically refreshed every 10 minutes)

About weather observations | Map of weather stations | Latest weather observations for TAS | Other Formats
Station Details ID: 092163 Name: FINGAL (FLEMING ST) Lat: -41.64 Lon: 147.98 Height: 255.0 m
Data from the previous 72 hours. | See also: Recent months for locations in Tasmania
Date/Time
EDT
Temp
°C
App
Temp
°C
Dew
Point
°C
Rel
Hum
%
Delta-T
°C
Wind Press
QNH
hPa
Press
MSL
hPa
Rain since
9am
mm
Dir  Spd
km/h
Gust
km/h
Spd
kts
Gust
kts
10/12:00pm 15.3 12.5 6.8 57 4.2 N 11 13 6 7 - - 0.0
10/11:30am 16.7 14.4 7.4 54 4.7 N 9 17 5 9 - - 0.0
10/11:00am 16.4 14.1 7.6 56 4.5 NNW 9 17 5 9 - - 0.0
10/10:30am 16.2 14.5 7.7 57 4.3 NE 6 11 3 6 - - 0.0
10/10:00am 15.2 13.5 7.7 61 3.8 NNW 6 9 3 5 - - 0.0
10/09:30am 14.3 12.9 8.7 69 2.9 NNW 6 13 3 7 - - 0.0
10/09:00am 13.7 12.1 7.9 68 2.9 W 6 9 3 5 - - 0.6
10/08:30am 12.4 11.6 8.1 75 2.1 S 2 4 1 2 - - 0.6
10/08:00am 10.8 10.2 7.5 80 1.6 CALM 0 0 0 0 - - 0.6
10/07:30am 9.6 8.9 7.0 84 1.2 CALM 0 0 0 0 - - 0.6
10/07:00am 8.1 7.2 6.2 88 0.9 CALM 0 4 0 2 - - 0.6
10/06:30am 5.1 2.8 4.8 98 0.1 ESE 6 7 3 4 - - 0.6
10/06:00am 3.3 1.7 2.4 94 0.4 CALM 0 0 0 0 - - 0.6
10/05:30am 3.9 2.1 3.3 96 0.2 S 2 4 1 2 - - 0.6
10/05:00am 3.1 1.5 2.2 94 0.4 CALM 0 2 0 1 - - 0.6
10/04:30am 4.9 3.3 4.3 96 0.3 SSE 2 6 1 3 - - 0.6
10/04:00am 4.5 3.1 3.8 95 0.3 CALM 0 4 0 2 - - 0.6
10/03:30am 5.8 4.0 5.2 96 0.3 SE 4 6 2 3 - - 0.6
10/03:00am 6.0 4.1 5.1 94 0.4 NE 4 6 2 3 - - 0.6
10/02:30am 6.2 4.3 4.7 90 0.7 S 4 9 2 5 - - 0.6
10/02:00am 8.9 6.8 6.0 82 1.3 SW 6 9 3 5 - - 0.6
10/01:30am 9.7 7.2 6.4 80 1.6 WSW 9 17 5 9 - - 0.6
10/01:00am 9.7 6.9 6.8 82 1.4 S 11 15 6 8 - - 0.6
10/12:30am 10.1 7.6 6.6 79 1.7 SSW 9 17 5 9 - - 0.6
10/12:00am 9.9 7.5 7.0 82 1.4 S 9 15 5 8 - - 0.6
 
Date/Time
EDT
Temp
°C
App
Temp
°C
Dew
Point
°C
Rel
Hum
%
Delta-T
°C
Wind Press
QNH
hPa
Press
MSL
hPa
Rain since
9am
mm
Dir  Spd
km/h
Gust
km/h
Spd
kts
Gust
kts
09/11:30pm 9.9 8.0 6.8 81 1.5 SSW 6 11 3 6 - - 0.6
09/11:00pm 10.3 8.3 7.2 81 1.5 S 7 11 4 6 - - 0.6
09/10:30pm 10.7 9.0 7.4 80 1.6 SSE 6 11 3 6 - - 0.6
09/10:00pm 10.7 9.1 7.8 82 1.4 S 6 13 3 7 - - 0.6
09/09:30pm 11.3 9.0 7.4 77 1.9 S 9 15 5 8 - - 0.6
09/09:00pm 11.5 10.2 7.6 77 1.9 SSE 4 13 2 7 - - 0.6
09/08:30pm 11.4 8.1 7.9 79 1.7 S 15 24 8 13 - - 0.6
09/08:00pm 11.8 8.0 7.7 76 2.0 SSE 17 24 9 13 - - 0.6
09/07:30pm 12.2 9.7 8.3 77 2.0 S 11 17 6 9 - - 0.6
09/07:00pm 12.2 9.0 8.5 78 1.9 S 15 26 8 14 - - 0.6
09/06:30pm 12.3 8.8 8.6 78 1.9 SSE 17 30 9 16 - - 0.6
09/06:00pm 12.4 9.7 9.1 80 1.7 S 13 20 7 11 - - 0.4
09/05:30pm 13.2 10.3 8.3 72 2.5 SSE 13 20 7 11 - - 0.4
09/05:00pm 13.5 11.3 9.4 76 2.1 S 11 19 6 10 - - 0.4
09/04:30pm 14.1 11.5 7.9 66 3.1 SSE 11 20 6 11 - - 0.2
09/04:00pm 14.9 12.4 8.2 64 3.4 S 11 22 6 12 - - 0.0
09/03:30pm 15.3 11.6 8.1 62 3.7 SSE 17 28 9 15 - - 0.0
09/03:00pm 14.8 11.7 7.1 60 3.8 S 13 24 7 13 - - 0.0
09/02:30pm 15.1 12.4 7.4 60 3.9 SE 11 22 6 12 - - 0.0
09/02:00pm 14.0 9.7 7.1 63 3.4 S 19 33 10 18 - - 0.0
09/01:30pm 14.1 10.4 6.2 59 3.8 SSW 15 28 8 15 - - 0.0
09/01:00pm 13.2 9.1 8.7 74 2.3 S 20 37 11 20 - - 0.0
09/12:30pm 13.6 9.2 5.0 56 4.1 SSW 17 32 9 17 - - 0.0
09/12:00pm 15.2 9.8 6.5 56 4.3 SSW 24 33 13 18 - - 0.0
09/11:30am 13.7 9.0 5.1 56 4.1 S 19 32 10 17 - - 0.0
09/11:00am 12.6 9.3 6.2 65 3.1 SSW 13 22 7 12 - - 0.0
09/10:30am 10.5 6.0 5.9 73 2.2 S 19 32 10 17 - - 0.0
09/10:00am 11.2 6.9 5.3 67 2.7 SW 17 32 9 17 - - 0.0
09/09:30am 10.2 5.8 5.0 70 2.4 SW 17 28 9 15 - - 0.0
09/09:00am 9.0 4.2 4.8 75 1.9 WSW 19 26 10 14 - - 0.2
09/08:30am 8.8 3.9 4.2 73 2.0 WSW 19 28 10 15 - - 0.2
09/08:00am 8.0 1.7 3.8 75 1.8 WSW 26 39 14 21 - - 0.2
09/07:30am 7.3 1.0 3.7 78 1.6 SW 26 33 14 18 - - 0.2
09/07:00am 6.7 0.4 3.7 81 1.3 WSW 26 35 14 19 - - 0.2
09/06:30am 6.4 1.2 3.4 81 1.3 SW 20 28 11 15 - - 0.2
09/06:00am 5.9 0.8 3.2 83 1.1 SW 19 28 10 15 - - 0.0
09/05:30am 6.5 0.6 2.0 73 1.9 WSW 22 33 12 18 - - 0.0
09/05:00am 6.0 0.1 1.9 75 1.7 SW 22 32 12 17 - - 0.0
09/04:30am 6.5 0.1 1.2 69 2.1 SW 24 37 13 20 - - 0.0
09/04:00am 5.8 0.1 0.8 70 2.0 SW 20 30 11 16 - - 0.0
09/03:30am 6.2 -0.3 0.3 66 2.3 SW 24 39 13 21 - - 0.0
09/03:00am 6.4 0.2 -0.1 63 2.5 SW 22 33 12 18 - - 0.0
09/02:30am 6.2 0.4 -0.1 64 2.5 SW 20 32 11 17 - - 0.0
09/02:00am 6.7 0.5 -0.3 61 2.7 WSW 22 30 12 16 - - 0.0
09/01:30am 6.8 0.2 -0.6 59 2.9 SW 24 35 13 19 - - 0.0
09/01:00am 6.9 1.0 -1.0 57 3.0 SW 20 35 11 19 - - 0.0
09/12:30am 6.8 0.8 -1.6 55 3.2 SW 20 30 11 16 - - 0.0
09/12:00am 7.3 1.2 -2.2 51 3.6 SW 20 39 11 21 - - 0.0
 
Date/Time
EDT
Temp
°C
App
Temp
°C
Dew
Point
°C
Rel
Hum
%
Delta-T
°C
Wind Press
QNH
hPa
Press
MSL
hPa
Rain since
9am
mm
Dir  Spd
km/h
Gust
km/h
Spd
kts
Gust
kts
08/11:30pm 7.1 2.3 -2.3 51 3.5 SW 13 20 7 11 - - 0.0
08/11:00pm 7.2 2.5 -1.7 53 3.4 SW 13 19 7 10 - - 0.0
08/10:30pm 8.2 2.8 -1.3 51 3.7 SW 17 32 9 17 - - 0.0
08/10:00pm 8.3 3.0 -0.7 53 3.5 SSW 17 22 9 12 - - 0.0
08/09:30pm 9.1 2.8 -1.3 48 4.1 SW 22 37 12 20 - - 0.0
08/09:00pm 8.9 3.2 -0.4 52 3.7 SW 19 28 10 15 - - 0.0
08/08:30pm 9.6 3.8 -0.3 50 4.0 SW 20 35 11 19 - - 0.0
08/08:00pm 10.4 4.7 0.4 50 4.1 SSW 20 35 11 19 - - 0.0
08/07:30pm 11.1 5.4 0.8 49 4.3 SW 20 33 11 18 - - 0.0
08/07:00pm 11.9 6.8 1.0 47 4.6 SW 17 28 9 15 - - 0.0
08/06:30pm 12.4 6.6 0.2 43 5.1 SSW 20 33 11 18 - - 0.0
08/06:00pm 13.7 7.4 1.4 43 5.4 SSW 24 43 13 23 - - 0.0
08/05:30pm 13.6 8.1 1.9 45 5.2 SW 20 37 11 20 - - 0.0
08/05:00pm 14.9 9.1 2.1 42 5.7 S 22 33 12 18 - - 0.0
08/04:30pm 15.1 9.9 2.6 43 5.7 SSW 19 35 10 19 - - 0.0
08/04:00pm 14.8 8.5 1.3 40 5.9 SSW 24 41 13 22 - - 0.0
08/03:30pm 15.1 8.8 1.6 40 6.0 SW 24 43 13 23 - - 0.0
08/03:00pm 13.6 7.3 1.3 43 5.4 SSW 24 41 13 22 - - 0.0
08/02:30pm 14.5 8.5 3.6 48 5.0 SSW 24 44 13 24 - - 0.0
08/02:00pm 13.1 7.4 2.6 49 4.7 SW 22 41 12 22 - - 0.0
08/01:33pm 13.6 7.3 3.7 51 4.5 SW 26 46 14 25 - - 0.0
08/01:30pm 14.3 8.9 4.3 51 4.7 SW 22 46 12 25 - - 0.0
08/01:05pm 14.2 7.4 5.0 54 4.4 SW 30 48 16 26 - - 0.0
08/01:00pm 13.4 6.2 2.9 49 4.7 SW 30 48 16 26 - - 0.0
08/12:33pm 13.5 5.8 3.6 51 4.5 SSW 33 54 18 29 - - 0.0
08/12:30pm 13.6 6.2 3.9 52 4.5 SSW 32 48 17 26 - - 0.0
08/12:04pm 11.5 2.8 2.3 53 4.0 SW 37 57 20 31 - - 0.0
08/12:00pm 11.6 3.0 2.6 54 4.0 SW 37 50 20 27 - - 0.0
08/11:30am 11.3 3.1 2.6 55 3.8 SW 35 52 19 28 - - 0.0
08/11:17am 11.5 2.5 2.5 54 3.9 SW 39 59 21 32 - - 0.0
08/11:00am 11.5 2.6 3.0 56 3.8 SW 39 54 21 29 - - 0.0
08/10:33am 12.3 5.3 4.0 57 3.8 SW 30 50 16 27 - - 0.0
08/10:30am 12.3 5.0 4.5 59 3.6 SW 32 48 17 26 - - 0.0
08/10:00am 11.9 3.6 4.2 59 3.5 SW 37 56 20 30 - - 0.0
08/09:30am 10.7 1.9 3.7 62 3.1 SW 39 61 21 33 - - 0.0
08/09:00am 9.8 2.4 4.2 68 2.5 SW 32 50 17 27 - - 2.4
08/08:32am 9.1 1.6 3.7 69 2.4 SW 32 52 17 28 - - 2.4
08/08:30am 9.0 1.9 3.8 70 2.3 SW 30 43 16 23 - - 2.4
08/08:21am 8.9 1.5 3.9 71 2.2 SW 32 50 17 27 - - 2.4
08/08:00am 8.7 0.3 3.9 72 2.1 SW 37 50 20 27 - - 2.4
08/07:30am 8.7 -0.1 3.7 71 2.2 SW 39 57 21 31 - - 2.4
08/07:26am 8.7 -0.1 3.7 71 2.2 SW 39 57 21 31 - - 2.4
08/07:00am 8.2 -0.6 3.5 72 2.0 SW 39 54 21 29 - - 2.4
08/06:30am 8.1 -0.7 3.6 73 2.0 SW 39 59 21 32 - - 2.4
08/06:03am 8.2 -0.6 3.5 72 2.0 SW 39 61 21 33 - - 2.4
08/06:00am 8.2 -0.2 3.5 72 2.0 SW 37 54 20 29 - - 2.4
08/05:30am 8.0 1.0 4.0 76 1.8 SW 30 56 16 30 - - 2.4
08/05:21am 7.9 0.5 3.9 76 1.8 SW 32 56 17 30 - - 2.4
08/05:00am 8.4 0.8 3.8 73 2.0 SW 33 50 18 27 - - 2.4
08/04:51am 8.5 1.1 3.8 72 2.1 SW 32 50 17 27 - - 2.4
08/04:30am 8.7 1.7 4.1 73 2.0 SW 30 41 16 22 - - 2.4
08/04:00am 8.7 2.9 4.3 74 2.0 SW 24 35 13 19 - - 2.4
08/03:30am 8.7 4.2 4.3 74 2.0 SW 17 26 9 14 - - 2.4
08/03:00am 8.4 4.4 4.8 78 1.6 SW 15 24 8 13 - - 2.4
08/02:30am 8.6 3.6 4.8 77 1.7 SSW 20 30 11 16 - - 2.4
08/02:00am 8.3 3.5 5.8 84 1.1 SW 20 33 11 18 - - 2.2
08/01:30am 8.6 6.2 6.9 89 0.8 WSW 9 15 5 8 - - 2.2
08/01:00am 9.1 6.5 7.7 91 0.7 WSW 11 17 6 9 - - 2.2
08/12:30am 9.3 7.6 8.5 95 0.4 WSW 7 11 4 6 - - 1.6
08/12:00am 9.3 8.2 8.5 95 0.4 WSW 4 7 2 4 - - 1.4
 
Date/Time
EDT
Temp
°C
App
Temp
°C
Dew
Point
°C
Rel
Hum
%
Delta-T
°C
Wind Press
QNH
hPa
Press
MSL
hPa
Rain since
9am
mm
Dir  Spd
km/h
Gust
km/h
Spd
kts
Gust
kts
07/11:30pm 9.3 8.1 8.2 93 0.5 SW 4 6 2 3 - - 1.2
07/11:00pm 9.5 8.0 8.3 92 0.6 WSW 6 6 3 3 - - 1.0
07/10:30pm 9.6 8.5 8.5 93 0.5 W 4 9 2 5 - - 0.6
07/10:00pm 9.7 8.2 8.3 91 0.7 WNW 6 9 3 5 - - 0.6
07/09:30pm 10.6 8.7 7.5 81 1.5 WSW 7 15 4 8 - - 0.2
07/09:00pm 11.3 8.1 6.8 74 2.2 S 13 19 7 10 - - 0.2
07/08:30pm 11.0 8.2 7.1 77 1.9 SSE 11 19 6 10 - - 0.2
07/08:00pm 11.7 9.0 7.2 74 2.2 S 11 17 6 9 - - 0.2
07/07:30pm 12.2 9.5 7.5 73 2.3 SSE 11 20 6 11 - - 0.2
07/07:00pm 12.3 8.6 8.0 75 2.1 SSE 17 26 9 14 - - 0.2
07/06:30pm 11.8 7.2 8.3 79 1.7 SSE 22 35 12 19 - - 0.2
07/06:15pm 12.7 6.7 8.6 76 2.1 S 30 48 16 26 - - 0.2
07/06:00pm 14.9 9.4 7.5 61 3.7 SSW 26 37 14 20 - - 0.0
07/05:30pm 17.7 15.9 9.3 58 4.4 NE 9 19 5 10 - - 0.0
07/05:00pm 18.3 15.6 8.8 54 5.0 NE 13 24 7 13 - - 0.0
07/04:30pm 19.6 15.9 9.5 52 5.4 NNE 19 26 10 14 - - 0.0
07/04:00pm 19.5 16.5 10.5 56 4.9 NE 17 24 9 13 - - 0.0
07/03:30pm 20.1 18.0 8.4 47 6.2 N 9 19 5 10 - - 0.0
07/03:00pm 21.2 18.7 3.9 32 8.4 NW 6 17 3 9 - - 0.0
07/02:30pm 20.4 16.2 4.0 34 8.0 WSW 15 26 8 14 - - 0.0
07/02:00pm 20.1 16.0 4.2 35 7.7 WSW 15 22 8 12 - - 0.0
07/01:30pm 19.8 18.0 7.2 44 6.5 WSW 6 13 3 7 - - 0.0
07/01:00pm 19.0 17.1 7.4 47 6.0 NW 7 15 4 8 - - 0.0
07/12:30pm 18.8 17.6 7.9 49 5.7 WSW 4 9 2 5 - - 0.0

Other formats

Comma delimited format used in spreadsheet applications
http://www.bom.gov.au/fwo/IDT60801/IDT60801.95975.axf

JavaScript Object Notation format (JSON) in row-major order
http://www.bom.gov.au/fwo/IDT60801/IDT60801.95975.json

Data quality

Most of these data are generated automatically and are frequently updated. Quality checks on data are not normally performed. It is possible for incorrect values to appear. Refer to information at About Latest Weather Observations and please check the disclaimer before using these data.